sensor_id;sensor_type;location;lat;lon;timestamp;temperature;humidity
18281;DHT22;9266;51.132;17.062;2022-10-26T00:00:49;8.60;99.90
18281;DHT22;9266;51.132;17.062;2022-10-26T00:03:16;8.60;99.90
18281;DHT22;9266;51.132;17.062;2022-10-26T00:05:44;8.50;99.90
18281;DHT22;9266;51.132;17.062;2022-10-26T00:08:12;8.50;99.90
18281;DHT22;9266;51.132;17.062;2022-10-26T00:10:39;8.40;99.90
18281;DHT22;9266;51.132;17.062;2022-10-26T00:13:09;8.40;99.90
18281;DHT22;9266;51.132;17.062;2022-10-26T00:15:39;8.40;99.90
18281;DHT22;9266;51.132;17.062;2022-10-26T00:18:07;6.50;99.90
18281;DHT22;9266;51.132;17.062;2022-10-26T00:20:34;8.50;99.90
18281;DHT22;9266;51.132;17.062;2022-10-26T00:23:01;8.30;99.90
18281;DHT22;9266;51.132;17.062;2022-10-26T00:25:29;8.20;99.90
18281;DHT22;9266;51.132;17.062;2022-10-26T00:27:56;8.20;99.90
18281;DHT22;9266;51.132;17.062;2022-10-26T00:30:24;6.80;99.90
18281;DHT22;9266;51.132;17.062;2022-10-26T00:32:51;8.20;99.90
18281;DHT22;9266;51.132;17.062;2022-10-26T00:35:18;8.10;99.90
18281;DHT22;9266;51.132;17.062;2022-10-26T00:37:45;8.00;99.90
18281;DHT22;9266;51.132;17.062;2022-10-26T00:40:12;8.00;99.90
18281;DHT22;9266;51.132;17.062;2022-10-26T00:42:41;8.00;99.90
18281;DHT22;9266;51.132;17.062;2022-10-26T00:45:18;7.90;99.90
18281;DHT22;9266;51.132;17.062;2022-10-26T00:47:49;7.90;99.90
18281;DHT22;9266;51.132;17.062;2022-10-26T00:50:18;7.90;99.90
18281;DHT22;9266;51.132;17.062;2022-10-26T00:52:46;7.90;99.90
18281;DHT22;9266;51.132;17.062;2022-10-26T00:55:14;7.90;99.90
18281;DHT22;9266;51.132;17.062;2022-10-26T00:57:48;7.90;99.90
18281;DHT22;9266;51.132;17.062;2022-10-26T01:00:17;8.00;99.90
18281;DHT22;9266;51.132;17.062;2022-10-26T01:02:46;9.90;99.90
18281;DHT22;9266;51.132;17.062;2022-10-26T01:05:15;8.00;99.90
18281;DHT22;9266;51.132;17.062;2022-10-26T01:07:43;7.90;99.90
18281;DHT22;9266;51.132;17.062;2022-10-26T01:10:11;7.80;99.90
18281;DHT22;9266;51.132;17.062;2022-10-26T01:12:40;7.80;99.90
18281;DHT22;9266;51.132;17.062;2022-10-26T01:15:09;7.70;99.90
18281;DHT22;9266;51.132;17.062;2022-10-26T01:17:52;7.70;99.90
18281;DHT22;9266;51.132;17.062;2022-10-26T01:20:42;7.60;99.90
18281;DHT22;9266;51.132;17.062;2022-10-26T01:23:17;7.50;99.90
18281;DHT22;9266;51.132;17.062;2022-10-26T01:26:10;7.50;99.90
18281;DHT22;9266;51.132;17.062;2022-10-26T01:29:01;7.60;99.90
18281;DHT22;9266;51.132;17.062;2022-10-26T01:31:39;7.70;99.90
18281;DHT22;9266;51.132;17.062;2022-10-26T01:34:11;7.60;99.90
18281;DHT22;9266;51.132;17.062;2022-10-26T01:36:47;7.70;99.90
18281;DHT22;9266;51.132;17.062;2022-10-26T01:39:21;7.80;99.90
18281;DHT22;9266;51.132;17.062;2022-10-26T01:41:50;7.70;99.90
18281;DHT22;9266;51.132;17.062;2022-10-26T01:44:20;7.70;99.90
18281;DHT22;9266;51.132;17.062;2022-10-26T01:46:52;7.70;99.90
18281;DHT22;9266;51.132;17.062;2022-10-26T01:49:23;7.70;99.90
18281;DHT22;9266;51.132;17.062;2022-10-26T01:51:51;7.70;99.90
18281;DHT22;9266;51.132;17.062;2022-10-26T01:54:18;7.70;99.90
18281;DHT22;9266;51.132;17.062;2022-10-26T01:56:48;7.60;99.90
18281;DHT22;9266;51.132;17.062;2022-10-26T01:59:31;7.60;99.90
18281;DHT22;9266;51.132;17.062;2022-10-26T02:02:34;7.50;99.90
18281;DHT22;9266;51.132;17.062;2022-10-26T02:08:28;7.40;99.90
18281;DHT22;9266;51.132;17.062;2022-10-26T02:11:09;7.30;99.90
18281;DHT22;9266;51.132;17.062;2022-10-26T02:13:43;8.50;99.90
18281;DHT22;9266;51.132;17.062;2022-10-26T02:16:18;7.40;99.90
18281;DHT22;9266;51.132;17.062;2022-10-26T02:18:54;7.50;99.90
18281;DHT22;9266;51.132;17.062;2022-10-26T02:21:30;7.50;99.90
18281;DHT22;9266;51.132;17.062;2022-10-26T02:24:02;7.30;99.90
18281;DHT22;9266;51.132;17.062;2022-10-26T02:26:32;7.30;99.90
18281;DHT22;9266;51.132;17.062;2022-10-26T02:29:03;7.20;99.90
18281;DHT22;9266;51.132;17.062;2022-10-26T02:31:33;7.10;99.90
18281;DHT22;9266;51.132;17.062;2022-10-26T02:34:05;7.10;99.90
18281;DHT22;9266;51.132;17.062;2022-10-26T02:36:35;7.10;99.90
18281;DHT22;9266;51.132;17.062;2022-10-26T02:39:06;7.10;99.90
18281;DHT22;9266;51.132;17.062;2022-10-26T02:41:34;7.10;99.90
18281;DHT22;9266;51.132;17.062;2022-10-26T02:44:06;7.20;99.90
18281;DHT22;9266;51.132;17.062;2022-10-26T02:46:34;7.10;99.90
18281;DHT22;9266;51.132;17.062;2022-10-26T02:49:03;7.10;99.90
18281;DHT22;9266;51.132;17.062;2022-10-26T02:51:36;7.10;99.90
18281;DHT22;9266;51.132;17.062;2022-10-26T02:54:13;7.10;99.90
18281;DHT22;9266;51.132;17.062;2022-10-26T02:56:43;7.00;99.90
18281;DHT22;9266;51.132;17.062;2022-10-26T02:59:14;7.10;99.90
18281;DHT22;9266;51.132;17.062;2022-10-26T03:01:43;7.10;99.90
18281;DHT22;9266;51.132;17.062;2022-10-26T03:04:12;7.10;99.90
18281;DHT22;9266;51.132;17.062;2022-10-26T03:06:39;7.00;99.90
18281;DHT22;9266;51.132;17.062;2022-10-26T03:09:06;7.00;99.90
18281;DHT22;9266;51.132;17.062;2022-10-26T03:11:33;7.00;99.90
18281;DHT22;9266;51.132;17.062;2022-10-26T03:14:00;7.00;99.90
18281;DHT22;9266;51.132;17.062;2022-10-26T03:16:28;7.00;99.90
18281;DHT22;9266;51.132;17.062;2022-10-26T03:18:55;7.00;99.90
18281;DHT22;9266;51.132;17.062;2022-10-26T03:21:23;7.00;99.90
18281;DHT22;9266;51.132;17.062;2022-10-26T03:23:50;7.00;99.90
18281;DHT22;9266;51.132;17.062;2022-10-26T03:26:17;7.00;99.90
18281;DHT22;9266;51.132;17.062;2022-10-26T03:28:44;7.00;99.90
18281;DHT22;9266;51.132;17.062;2022-10-26T03:31:12;7.00;99.90
18281;DHT22;9266;51.132;17.062;2022-10-26T03:33:39;6.90;99.90
18281;DHT22;9266;51.132;17.062;2022-10-26T03:36:07;6.90;99.90
18281;DHT22;9266;51.132;17.062;2022-10-26T03:38:35;6.90;99.90
18281;DHT22;9266;51.132;17.062;2022-10-26T03:41:02;6.90;99.90
18281;DHT22;9266;51.132;17.062;2022-10-26T03:43:30;6.90;99.90
18281;DHT22;9266;51.132;17.062;2022-10-26T03:45:57;6.90;99.90
18281;DHT22;9266;51.132;17.062;2022-10-26T03:48:24;6.90;99.90
18281;DHT22;9266;51.132;17.062;2022-10-26T03:50:51;6.90;99.90
18281;DHT22;9266;51.132;17.062;2022-10-26T03:53:18;6.90;99.90
18281;DHT22;9266;51.132;17.062;2022-10-26T03:55:47;6.70;99.90
18281;DHT22;9266;51.132;17.062;2022-10-26T03:58:14;6.80;99.90
18281;DHT22;9266;51.132;17.062;2022-10-26T04:00:41;6.80;99.90
18281;DHT22;9266;51.132;17.062;2022-10-26T04:03:08;6.80;99.90
18281;DHT22;9266;51.132;17.062;2022-10-26T04:05:35;6.70;99.90
18281;DHT22;9266;51.132;17.062;2022-10-26T04:08:02;6.70;99.90
18281;DHT22;9266;51.132;17.062;2022-10-26T04:10:30;6.70;99.90
18281;DHT22;9266;51.132;17.062;2022-10-26T04:12:58;6.70;99.90
18281;DHT22;9266;51.132;17.062;2022-10-26T04:15:26;6.80;99.90
18281;DHT22;9266;51.132;17.062;2022-10-26T04:17:57;6.80;99.90
18281;DHT22;9266;51.132;17.062;2022-10-26T04:20:25;6.80;99.90
18281;DHT22;9266;51.132;17.062;2022-10-26T04:22:59;6.90;99.90
18281;DHT22;9266;51.132;17.062;2022-10-26T04:25:27;7.00;99.90
18281;DHT22;9266;51.132;17.062;2022-10-26T04:27:54;7.00;99.90
18281;DHT22;9266;51.132;17.062;2022-10-26T04:30:23;7.10;99.90
18281;DHT22;9266;51.132;17.062;2022-10-26T04:32:50;7.00;99.90
18281;DHT22;9266;51.132;17.062;2022-10-26T04:35:17;7.10;99.90
18281;DHT22;9266;51.132;17.062;2022-10-26T04:37:44;7.10;99.90
18281;DHT22;9266;51.132;17.062;2022-10-26T04:40:12;7.20;99.90
18281;DHT22;9266;51.132;17.062;2022-10-26T04:42:42;7.30;99.90
18281;DHT22;9266;51.132;17.062;2022-10-26T04:45:11;7.40;99.90
18281;DHT22;9266;51.132;17.062;2022-10-26T04:47:40;7.30;99.90
18281;DHT22;9266;51.132;17.062;2022-10-26T04:50:09;7.20;99.90
18281;DHT22;9266;51.132;17.062;2022-10-26T04:52:36;7.20;99.90
18281;DHT22;9266;51.132;17.062;2022-10-26T04:55:04;7.20;99.90
18281;DHT22;9266;51.132;17.062;2022-10-26T04:57:32;7.00;99.90
18281;DHT22;9266;51.132;17.062;2022-10-26T05:00:00;6.90;99.90
18281;DHT22;9266;51.132;17.062;2022-10-26T05:02:28;6.90;99.90
18281;DHT22;9266;51.132;17.062;2022-10-26T05:04:56;7.00;99.90
18281;DHT22;9266;51.132;17.062;2022-10-26T05:07:23;7.00;99.90
18281;DHT22;9266;51.132;17.062;2022-10-26T05:09:50;7.10;99.90
18281;DHT22;9266;51.132;17.062;2022-10-26T05:12:18;7.10;99.90
18281;DHT22;9266;51.132;17.062;2022-10-26T05:14:45;7.10;99.90
18281;DHT22;9266;51.132;17.062;2022-10-26T05:17:12;7.10;99.90
18281;DHT22;9266;51.132;17.062;2022-10-26T05:19:39;7.10;99.90
18281;DHT22;9266;51.132;17.062;2022-10-26T05:22:08;7.10;99.90
18281;DHT22;9266;51.132;17.062;2022-10-26T05:24:35;7.10;99.90
18281;DHT22;9266;51.132;17.062;2022-10-26T05:27:02;7.00;99.90
18281;DHT22;9266;51.132;17.062;2022-10-26T05:29:29;6.90;99.90
18281;DHT22;9266;51.132;17.062;2022-10-26T05:31:56;6.80;99.90
18281;DHT22;9266;51.132;17.062;2022-10-26T05:34:23;6.70;99.90
18281;DHT22;9266;51.132;17.062;2022-10-26T05:36:52;6.70;99.90
18281;DHT22;9266;51.132;17.062;2022-10-26T05:39:21;6.70;99.90
18281;DHT22;9266;51.132;17.062;2022-10-26T05:41:48;6.70;99.90
18281;DHT22;9266;51.132;17.062;2022-10-26T05:44:15;6.70;99.90
18281;DHT22;9266;51.132;17.062;2022-10-26T05:46:42;6.70;99.90
18281;DHT22;9266;51.132;17.062;2022-10-26T05:49:09;6.70;99.90
18281;DHT22;9266;51.132;17.062;2022-10-26T05:51:37;6.70;99.90
18281;DHT22;9266;51.132;17.062;2022-10-26T05:54:04;6.90;99.90
18281;DHT22;9266;51.132;17.062;2022-10-26T05:56:37;7.10;99.90
18281;DHT22;9266;51.132;17.062;2022-10-26T05:59:10;7.40;99.90
18281;DHT22;9266;51.132;17.062;2022-10-26T06:01:47;7.90;99.90
18281;DHT22;9266;51.132;17.062;2022-10-26T06:04:31;8.10;99.90
18281;DHT22;9266;51.132;17.062;2022-10-26T06:07:01;8.20;99.90
18281;DHT22;9266;51.132;17.062;2022-10-26T06:09:29;8.50;99.90
18281;DHT22;9266;51.132;17.062;2022-10-26T06:11:58;8.70;99.90
18281;DHT22;9266;51.132;17.062;2022-10-26T06:14:26;8.70;99.90
18281;DHT22;9266;51.132;17.062;2022-10-26T06:17:06;9.10;99.90
18281;DHT22;9266;51.132;17.062;2022-10-26T06:19:48;9.10;99.90
18281;DHT22;9266;51.132;17.062;2022-10-26T06:22:31;9.30;99.90
18281;DHT22;9266;51.132;17.062;2022-10-26T06:25:11;9.50;99.90
18281;DHT22;9266;51.132;17.062;2022-10-26T06:27:49;9.90;99.90
18281;DHT22;9266;51.132;17.062;2022-10-26T06:30:19;10.30;99.90
18281;DHT22;9266;51.132;17.062;2022-10-26T06:32:48;10.40;99.90
18281;DHT22;9266;51.132;17.062;2022-10-26T06:35:26;10.60;99.90
18281;DHT22;9266;51.132;17.062;2022-10-26T06:37:57;10.60;99.90
18281;DHT22;9266;51.132;17.062;2022-10-26T06:40:25;10.00;99.90
18281;DHT22;9266;51.132;17.062;2022-10-26T06:42:54;10.30;99.90
18281;DHT22;9266;51.132;17.062;2022-10-26T06:45:22;10.90;99.90
18281;DHT22;9266;51.132;17.062;2022-10-26T06:47:53;10.80;99.90
18281;DHT22;9266;51.132;17.062;2022-10-26T06:50:31;11.30;99.90
18281;DHT22;9266;51.132;17.062;2022-10-26T06:53:08;11.70;99.90
18281;DHT22;9266;51.132;17.062;2022-10-26T06:55:41;12.40;99.90
18281;DHT22;9266;51.132;17.062;2022-10-26T06:58:13;12.50;99.90
18281;DHT22;9266;51.132;17.062;2022-10-26T07:00:43;12.60;53.50
18281;DHT22;9266;51.132;17.062;2022-10-26T07:03:11;12.70;1.00
18281;DHT22;9266;51.132;17.062;2022-10-26T07:05:38;10.90;99.90
18281;DHT22;9266;51.132;17.062;2022-10-26T07:08:05;11.50;99.90
18281;DHT22;9266;51.132;17.062;2022-10-26T07:10:33;11.90;1.00
18281;DHT22;9266;51.132;17.062;2022-10-26T07:13:03;12.70;25.00
18281;DHT22;9266;51.132;17.062;2022-10-26T07:15:32;13.30;1.00
18281;DHT22;9266;51.132;17.062;2022-10-26T07:17:59;13.50;32.10
18281;DHT22;9266;51.132;17.062;2022-10-26T07:20:27;13.60;1.00
18281;DHT22;9266;51.132;17.062;2022-10-26T07:22:56;13.70;1.00
18281;DHT22;9266;51.132;17.062;2022-10-26T07:25:24;13.80;1.00
18281;DHT22;9266;51.132;17.062;2022-10-26T07:27:55;13.60;1.00
18281;DHT22;9266;51.132;17.062;2022-10-26T07:30:24;13.80;1.00
18281;DHT22;9266;51.132;17.062;2022-10-26T07:32:59;13.70;1.00
18281;DHT22;9266;51.132;17.062;2022-10-26T07:35:26;14.00;1.00
18281;DHT22;9266;51.132;17.062;2022-10-26T07:37:56;14.20;1.00
18281;DHT22;9266;51.132;17.062;2022-10-26T07:40:24;14.30;99.90
18281;DHT22;9266;51.132;17.062;2022-10-26T07:42:54;13.90;1.00
18281;DHT22;9266;51.132;17.062;2022-10-26T07:45:22;14.10;1.00
18281;DHT22;9266;51.132;17.062;2022-10-26T07:47:49;13.90;1.00
18281;DHT22;9266;51.132;17.062;2022-10-26T07:50:18;13.70;31.30
18281;DHT22;9266;51.132;17.062;2022-10-26T07:52:45;13.50;99.90
18281;DHT22;9266;51.132;17.062;2022-10-26T07:55:12;13.50;99.90
18281;DHT22;9266;51.132;17.062;2022-10-26T07:57:39;13.30;1.00
18281;DHT22;9266;51.132;17.062;2022-10-26T08:00:08;13.40;1.00
18281;DHT22;9266;51.132;17.062;2022-10-26T08:02:36;13.40;72.40
18281;DHT22;9266;51.132;17.062;2022-10-26T08:05:04;13.30;99.90
18281;DHT22;9266;51.132;17.062;2022-10-26T08:07:32;13.30;99.90
18281;DHT22;9266;51.132;17.062;2022-10-26T08:09:59;13.10;1.00
18281;DHT22;9266;51.132;17.062;2022-10-26T08:12:26;13.00;99.90
18281;DHT22;9266;51.132;17.062;2022-10-26T08:14:53;12.90;1.00
18281;DHT22;9266;51.132;17.062;2022-10-26T08:17:20;12.80;1.00
18281;DHT22;9266;51.132;17.062;2022-10-26T08:19:48;12.70;99.90
18281;DHT22;9266;51.132;17.062;2022-10-26T08:22:15;12.50;1.00
18281;DHT22;9266;51.132;17.062;2022-10-26T08:24:44;12.30;1.00
18281;DHT22;9266;51.132;17.062;2022-10-26T08:27:11;12.30;93.80
18281;DHT22;9266;51.132;17.062;2022-10-26T08:29:39;12.30;1.00
18281;DHT22;9266;51.132;17.062;2022-10-26T08:32:06;12.00;1.00
18281;DHT22;9266;51.132;17.062;2022-10-26T08:34:33;12.00;99.90
18281;DHT22;9266;51.132;17.062;2022-10-26T08:37:00;12.20;1.00
18281;DHT22;9266;51.132;17.062;2022-10-26T08:39:27;12.40;14.60
18281;DHT22;9266;51.132;17.062;2022-10-26T08:42:02;12.60;1.00
18281;DHT22;9266;51.132;17.062;2022-10-26T08:44:34;12.70;99.90
18281;DHT22;9266;51.132;17.062;2022-10-26T08:47:06;12.80;1.00
18281;DHT22;9266;51.132;17.062;2022-10-26T08:49:41;12.80;1.00
18281;DHT22;9266;51.132;17.062;2022-10-26T08:52:13;12.80;1.00
18281;DHT22;9266;51.132;17.062;2022-10-26T08:54:43;12.90;1.00
18281;DHT22;9266;51.132;17.062;2022-10-26T08:57:20;13.00;1.00
18281;DHT22;9266;51.132;17.062;2022-10-26T08:59:54;13.30;99.90
18281;DHT22;9266;51.132;17.062;2022-10-26T09:02:22;13.20;99.90
18281;DHT22;9266;51.132;17.062;2022-10-26T09:04:51;13.30;99.90
18281;DHT22;9266;51.132;17.062;2022-10-26T09:07:39;13.30;1.00
18281;DHT22;9266;51.132;17.062;2022-10-26T09:10:30;13.50;1.00
18281;DHT22;9266;51.132;17.062;2022-10-26T09:13:05;13.50;99.90
18281;DHT22;9266;51.132;17.062;2022-10-26T09:15:46;13.70;99.90
18281;DHT22;9266;51.132;17.062;2022-10-26T09:18:24;13.80;1.00
18281;DHT22;9266;51.132;17.062;2022-10-26T09:21:11;13.80;1.00
18281;DHT22;9266;51.132;17.062;2022-10-26T09:23:57;13.90;1.00
18281;DHT22;9266;51.132;17.062;2022-10-26T09:26:31;14.00;1.00
18281;DHT22;9266;51.132;17.062;2022-10-26T09:29:03;14.00;99.90
18281;DHT22;9266;51.132;17.062;2022-10-26T09:31:37;14.20;99.90
18281;DHT22;9266;51.132;17.062;2022-10-26T09:34:06;14.20;29.60
18281;DHT22;9266;51.132;17.062;2022-10-26T09:36:34;14.20;1.00
18281;DHT22;9266;51.132;17.062;2022-10-26T09:39:11;14.30;1.00
18281;DHT22;9266;51.132;17.062;2022-10-26T09:41:44;14.50;1.00
18281;DHT22;9266;51.132;17.062;2022-10-26T09:44:20;14.50;99.90
18281;DHT22;9266;51.132;17.062;2022-10-26T09:46:55;14.60;99.90
18281;DHT22;9266;51.132;17.062;2022-10-26T09:49:27;14.70;99.90
18281;DHT22;9266;51.132;17.062;2022-10-26T09:51:57;14.80;89.00
18281;DHT22;9266;51.132;17.062;2022-10-26T09:54:25;14.70;99.90
18281;DHT22;9266;51.132;17.062;2022-10-26T09:56:54;14.80;1.00
18281;DHT22;9266;51.132;17.062;2022-10-26T09:59:24;14.70;90.90
18281;DHT22;9266;51.132;17.062;2022-10-26T10:01:51;14.80;99.90
18281;DHT22;9266;51.132;17.062;2022-10-26T10:04:20;14.90;99.90
18281;DHT22;9266;51.132;17.062;2022-10-26T10:06:50;15.10;1.00
18281;DHT22;9266;51.132;17.062;2022-10-26T10:09:19;15.20;1.00
18281;DHT22;9266;51.132;17.062;2022-10-26T10:11:49;15.20;1.00
18281;DHT22;9266;51.132;17.062;2022-10-26T10:14:24;15.30;1.00
18281;DHT22;9266;51.132;17.062;2022-10-26T10:16:55;15.30;1.00
18281;DHT22;9266;51.132;17.062;2022-10-26T10:19:26;15.50;1.00
18281;DHT22;9266;51.132;17.062;2022-10-26T10:21:55;15.60;99.90
18281;DHT22;9266;51.132;17.062;2022-10-26T10:24:25;15.70;99.90
18281;DHT22;9266;51.132;17.062;2022-10-26T10:26:58;15.80;99.90
18281;DHT22;9266;51.132;17.062;2022-10-26T10:29:27;15.70;99.90
18281;DHT22;9266;51.132;17.062;2022-10-26T10:31:55;15.70;99.90
18281;DHT22;9266;51.132;17.062;2022-10-26T10:34:23;15.90;9.20
18281;DHT22;9266;51.132;17.062;2022-10-26T10:36:50;15.90;1.00
18281;DHT22;9266;51.132;17.062;2022-10-26T10:39:34;15.90;1.00
18281;DHT22;9266;51.132;17.062;2022-10-26T10:42:03;16.10;1.00
18281;DHT22;9266;51.132;17.062;2022-10-26T10:44:33;16.20;1.00
18281;DHT22;9266;51.132;17.062;2022-10-26T10:47:01;16.20;1.00
18281;DHT22;9266;51.132;17.062;2022-10-26T10:49:29;16.20;1.00
18281;DHT22;9266;51.132;17.062;2022-10-26T10:51:57;16.20;1.00
18281;DHT22;9266;51.132;17.062;2022-10-26T10:54:28;16.30;1.00
18281;DHT22;9266;51.132;17.062;2022-10-26T10:57:04;16.40;1.00
18281;DHT22;9266;51.132;17.062;2022-10-26T10:59:55;16.50;1.00
18281;DHT22;9266;51.132;17.062;2022-10-26T11:05:49;16.50;1.00
18281;DHT22;9266;51.132;17.062;2022-10-26T11:08:21;16.50;99.90
18281;DHT22;9266;51.132;17.062;2022-10-26T11:10:52;16.60;99.90
18281;DHT22;9266;51.132;17.062;2022-10-26T11:13:25;16.70;99.90
18281;DHT22;9266;51.132;17.062;2022-10-26T11:16:00;16.80;99.90
18281;DHT22;9266;51.132;17.062;2022-10-26T11:18:32;16.80;99.90
18281;DHT22;9266;51.132;17.062;2022-10-26T11:21:03;17.00;99.90
18281;DHT22;9266;51.132;17.062;2022-10-26T11:23:37;17.00;99.90
18281;DHT22;9266;51.132;17.062;2022-10-26T11:26:11;17.00;99.90
18281;DHT22;9266;51.132;17.062;2022-10-26T11:28:46;17.10;99.90
18281;DHT22;9266;51.132;17.062;2022-10-26T11:31:19;17.20;99.90
18281;DHT22;9266;51.132;17.062;2022-10-26T11:33:52;17.30;99.90
18281;DHT22;9266;51.132;17.062;2022-10-26T11:36:24;17.20;85.20
18281;DHT22;9266;51.132;17.062;2022-10-26T11:38:56;17.20;55.60
18281;DHT22;9266;51.132;17.062;2022-10-26T11:41:30;17.20;36.40
18281;DHT22;9266;51.132;17.062;2022-10-26T11:44:04;17.20;14.80
18281;DHT22;9266;51.132;17.062;2022-10-26T11:46:40;17.10;1.00
18281;DHT22;9266;51.132;17.062;2022-10-26T11:49:13;17.20;1.00
18281;DHT22;9266;51.132;17.062;2022-10-26T11:51:44;17.30;1.00
18281;DHT22;9266;51.132;17.062;2022-10-26T11:54:15;17.30;1.00
18281;DHT22;9266;51.132;17.062;2022-10-26T11:56:47;17.40;1.00
18281;DHT22;9266;51.132;17.062;2022-10-26T11:59:18;17.40;1.00
18281;DHT22;9266;51.132;17.062;2022-10-26T12:01:49;17.30;1.00
18281;DHT22;9266;51.132;17.062;2022-10-26T12:04:18;17.30;1.00
18281;DHT22;9266;51.132;17.062;2022-10-26T12:06:50;17.30;1.00
18281;DHT22;9266;51.132;17.062;2022-10-26T12:09:22;17.30;1.00
18281;DHT22;9266;51.132;17.062;2022-10-26T12:11:55;17.30;1.00
18281;DHT22;9266;51.132;17.062;2022-10-26T12:14:28;17.40;1.00
18281;DHT22;9266;51.132;17.062;2022-10-26T12:17:03;17.50;1.00
18281;DHT22;9266;51.132;17.062;2022-10-26T12:19:38;17.50;1.00
18281;DHT22;9266;51.132;17.062;2022-10-26T12:22:09;17.60;1.00
18281;DHT22;9266;51.132;17.062;2022-10-26T12:24:42;17.60;1.00
18281;DHT22;9266;51.132;17.062;2022-10-26T12:27:28;17.50;1.00
18281;DHT22;9266;51.132;17.062;2022-10-26T12:30:21;17.50;1.00
18281;DHT22;9266;51.132;17.062;2022-10-26T12:32:52;17.60;1.00
18281;DHT22;9266;51.132;17.062;2022-10-26T12:35:31;17.60;1.00
18281;DHT22;9266;51.132;17.062;2022-10-26T12:37:59;17.50;1.00
18281;DHT22;9266;51.132;17.062;2022-10-26T12:41:06;17.40;1.00
18281;DHT22;9266;51.132;17.062;2022-10-26T12:43:36;17.40;1.00
18281;DHT22;9266;51.132;17.062;2022-10-26T12:52:48;17.60;1.00
18281;DHT22;9266;51.132;17.062;2022-10-26T12:55:47;17.60;1.00
18281;DHT22;9266;51.132;17.062;2022-10-26T12:58:45;17.70;1.00
18281;DHT22;9266;51.132;17.062;2022-10-26T13:04:59;17.70;1.00
18281;DHT22;9266;51.132;17.062;2022-10-26T13:07:34;17.70;1.00
18281;DHT22;9266;51.132;17.062;2022-10-26T13:10:05;17.70;1.00
18281;DHT22;9266;51.132;17.062;2022-10-26T13:12:47;17.70;1.00
18281;DHT22;9266;51.132;17.062;2022-10-26T13:15:21;17.70;1.00
18281;DHT22;9266;51.132;17.062;2022-10-26T13:17:58;17.60;1.00
18281;DHT22;9266;51.132;17.062;2022-10-26T13:20:29;17.70;1.00
18281;DHT22;9266;51.132;17.062;2022-10-26T13:22:57;16.80;1.00
18281;DHT22;9266;51.132;17.062;2022-10-26T13:25:27;17.70;1.00
18281;DHT22;9266;51.132;17.062;2022-10-26T13:28:01;17.70;1.00
18281;DHT22;9266;51.132;17.062;2022-10-26T13:30:42;17.60;1.00
18281;DHT22;9266;51.132;17.062;2022-10-26T13:33:22;17.60;1.00
18281;DHT22;9266;51.132;17.062;2022-10-26T13:35:56;17.60;1.00
18281;DHT22;9266;51.132;17.062;2022-10-26T13:38:30;17.60;1.00
18281;DHT22;9266;51.132;17.062;2022-10-26T13:41:11;17.60;1.00
18281;DHT22;9266;51.132;17.062;2022-10-26T13:43:41;17.50;1.00
18281;DHT22;9266;51.132;17.062;2022-10-26T13:46:21;17.60;1.00
18281;DHT22;9266;51.132;17.062;2022-10-26T13:48:49;17.60;1.00
18281;DHT22;9266;51.132;17.062;2022-10-26T13:51:20;17.60;1.00
18281;DHT22;9266;51.132;17.062;2022-10-26T13:53:51;17.70;1.00
18281;DHT22;9266;51.132;17.062;2022-10-26T13:56:26;17.60;1.00
18281;DHT22;9266;51.132;17.062;2022-10-26T13:58:59;17.60;1.00
18281;DHT22;9266;51.132;17.062;2022-10-26T14:01:28;17.60;1.00
18281;DHT22;9266;51.132;17.062;2022-10-26T14:03:56;17.50;1.00
18281;DHT22;9266;51.132;17.062;2022-10-26T14:06:26;17.50;1.00
18281;DHT22;9266;51.132;17.062;2022-10-26T14:08:57;17.40;1.00
18281;DHT22;9266;51.132;17.062;2022-10-26T14:11:33;17.60;1.00
18281;DHT22;9266;51.132;17.062;2022-10-26T14:14:02;17.50;1.00
18281;DHT22;9266;51.132;17.062;2022-10-26T14:16:31;17.50;1.00
18281;DHT22;9266;51.132;17.062;2022-10-26T14:19:00;17.40;1.00
18281;DHT22;9266;51.132;17.062;2022-10-26T14:21:29;17.30;1.00
18281;DHT22;9266;51.132;17.062;2022-10-26T14:23:57;17.30;1.00
18281;DHT22;9266;51.132;17.062;2022-10-26T14:26:27;17.30;1.00
18281;DHT22;9266;51.132;17.062;2022-10-26T14:28:57;17.20;1.00
18281;DHT22;9266;51.132;17.062;2022-10-26T14:31:27;19.00;1.00
18281;DHT22;9266;51.132;17.062;2022-10-26T14:33:55;17.10;1.00
18281;DHT22;9266;51.132;17.062;2022-10-26T14:36:27;17.00;1.00
18281;DHT22;9266;51.132;17.062;2022-10-26T14:38:58;17.00;1.00
18281;DHT22;9266;51.132;17.062;2022-10-26T14:41:30;17.10;1.00
18281;DHT22;9266;51.132;17.062;2022-10-26T14:43:59;17.00;1.00
18281;DHT22;9266;51.132;17.062;2022-10-26T14:46:31;17.00;1.00
18281;DHT22;9266;51.132;17.062;2022-10-26T14:49:00;17.00;1.00
18281;DHT22;9266;51.132;17.062;2022-10-26T14:51:29;16.80;1.00
18281;DHT22;9266;51.132;17.062;2022-10-26T14:53:57;16.70;1.00
18281;DHT22;9266;51.132;17.062;2022-10-26T14:56:29;16.70;1.00
18281;DHT22;9266;51.132;17.062;2022-10-26T14:59:10;16.70;1.00
18281;DHT22;9266;51.132;17.062;2022-10-26T15:01:49;16.70;1.00
18281;DHT22;9266;51.132;17.062;2022-10-26T15:04:30;16.60;1.00
18281;DHT22;9266;51.132;17.062;2022-10-26T15:07:06;16.60;1.00
18281;DHT22;9266;51.132;17.062;2022-10-26T15:09:42;16.60;1.00
18281;DHT22;9266;51.132;17.062;2022-10-26T15:12:41;16.60;1.00
18281;DHT22;9266;51.132;17.062;2022-10-26T15:15:19;16.60;1.00
18281;DHT22;9266;51.132;17.062;2022-10-26T15:17:50;16.60;1.00
18281;DHT22;9266;51.132;17.062;2022-10-26T15:20:19;16.50;1.00
18281;DHT22;9266;51.132;17.062;2022-10-26T15:22:51;16.50;1.00
18281;DHT22;9266;51.132;17.062;2022-10-26T15:25:24;16.40;1.00
18281;DHT22;9266;51.132;17.062;2022-10-26T15:27:54;16.20;1.00
18281;DHT22;9266;51.132;17.062;2022-10-26T15:30:33;16.20;1.00
18281;DHT22;9266;51.132;17.062;2022-10-26T15:33:16;16.00;1.00
18281;DHT22;9266;51.132;17.062;2022-10-26T15:35:44;16.00;1.00
18281;DHT22;9266;51.132;17.062;2022-10-26T15:38:12;15.70;1.00
18281;DHT22;9266;51.132;17.062;2022-10-26T15:40:42;15.70;1.00
18281;DHT22;9266;51.132;17.062;2022-10-26T15:43:11;15.70;1.00
18281;DHT22;9266;51.132;17.062;2022-10-26T15:45:45;15.50;1.00
18281;DHT22;9266;51.132;17.062;2022-10-26T15:48:18;15.40;1.00
18281;DHT22;9266;51.132;17.062;2022-10-26T15:50:48;15.30;1.00
18281;DHT22;9266;51.132;17.062;2022-10-26T15:53:21;15.20;1.00
18281;DHT22;9266;51.132;17.062;2022-10-26T15:55:50;15.10;1.00
18281;DHT22;9266;51.132;17.062;2022-10-26T15:58:19;14.90;92.60
18281;DHT22;9266;51.132;17.062;2022-10-26T16:00:47;14.70;99.90
18281;DHT22;9266;51.132;17.062;2022-10-26T16:03:16;14.60;99.90
18281;DHT22;9266;51.132;17.062;2022-10-26T16:05:44;14.40;1.00
18281;DHT22;9266;51.132;17.062;2022-10-26T16:08:14;14.40;1.00
18281;DHT22;9266;51.132;17.062;2022-10-26T16:10:42;14.30;1.00
18281;DHT22;9266;51.132;17.062;2022-10-26T16:13:11;14.20;1.00
18281;DHT22;9266;51.132;17.062;2022-10-26T16:15:40;14.20;1.00
18281;DHT22;9266;51.132;17.062;2022-10-26T16:18:08;14.10;1.00
18281;DHT22;9266;51.132;17.062;2022-10-26T16:20:35;14.10;1.00
18281;DHT22;9266;51.132;17.062;2022-10-26T16:23:02;14.00;1.00
18281;DHT22;9266;51.132;17.062;2022-10-26T16:25:33;13.90;1.00